WetterOnline ( https://www.wetteronline.de )

Wetter aktuell Plön

Aktuelles Wetter: Dörnick (28m)

6-stündlich | Neueste Meldungen
Ortszeit Temperatur Wetter
Mi, 03.03. 7:00 -1.1° C Nebel
Mi, 03.03. 1:00 -0.4° C Nebel
Di, 02.03. 19:00 3.6° C wolkenlos
Di, 02.03. 13:00 2.7° C bedeckt
Di, 02.03. 7:00 -0.8° C Nebel
Di, 02.03. 1:00 -0.5° C Nebel
Mo, 01.03. 19:00 3.1° C leicht bewölkt
Mo, 01.03. 13:00 3.1° C bedeckt
Ortszeit Temperatur Wetter
Mi, 03.03. 9:30 -0.3° C Nebel
Mi, 03.03. 9:20 -0.3° C Nebel
Mi, 03.03. 9:10 -0.4° C Nebel
Mi, 03.03. 9:00 -0.7° C Nebel
Mi, 03.03. 8:50 -0.7° C Nebel
Mi, 03.03. 8:40 -0.8° C Nebel
Mi, 03.03. 8:30 -0.9° C Nebel
Mi, 03.03. 8:00 -1.0° C Nebel
Mi, 03.03. 6:00 -1.3° C Nebel
Ortszeit Relative Feuchte Sichtweite
Mi, 03.03. 7:00 100% 0.2 km
Mi, 03.03. 1:00 100% 100 m
Di, 02.03. 19:00 97% 6 km
Di, 02.03. 13:00 95% 2.6 km
Di, 02.03. 7:00 100% 0.2 km
Di, 02.03. 1:00 100% <100 m
Mo, 01.03. 19:00 94% 12 km
Mo, 01.03. 13:00 97% 10 km
Ortszeit Relative Feuchte Sichtweite
Mi, 03.03. 9:30 99% 0.2 km
Mi, 03.03. 9:20 99% -
Mi, 03.03. 9:10 100% -
Mi, 03.03. 9:00 100% 100 m
Mi, 03.03. 8:50 100% -
Mi, 03.03. 8:40 100% -
Mi, 03.03. 8:30 100% 100 m
Mi, 03.03. 8:00 100% 100 m
Mi, 03.03. 6:00 100% 100 m
Ortszeit Niederschlagsmenge Niederschlagsart
Mi, 03.03. 7:00 0.0 l/m2 in 12 Std. -
Mi, 03.03. 1:00 0.0 l/m2 in 6 Std. -
Di, 02.03. 19:00 0.0 l/m2 in 12 Std. -
Di, 02.03. 13:00 0.0 l/m2 in 6 Std. -
Di, 02.03. 7:00 0.0 l/m2 in 12 Std. -
Di, 02.03. 1:00 0.0 l/m2 in 6 Std. -
Mo, 01.03. 19:00 0.0 l/m2 in 12 Std. -
Mo, 01.03. 13:00 0.0 l/m2 in 6 Std. -
Ortszeit Niederschlagsmenge Niederschlagsart
Mi, 03.03. 9:30 0.0 l/m2 in 1 Std. -
Mi, 03.03. 9:20 keine Meldung -
Mi, 03.03. 9:10 keine Meldung -
Mi, 03.03. 9:00 0.0 l/m2 in 1 Std. -
Mi, 03.03. 8:50 keine Meldung -
Mi, 03.03. 8:40 keine Meldung -
Mi, 03.03. 8:30 0.0 l/m2 in 1 Std. -
Mi, 03.03. 8:00 0.0 l/m2 in 1 Std. -
Mi, 03.03. 6:00 keine Meldung -
Ortszeit Stärke Spitze Richtung
km/h Bft. km/h Grad Sektor
Mi, 03.03. 7:00 4 1 11 150° SO
Mi, 03.03. 1:00 6 1 9 120° SO
Di, 02.03. 19:00 4 1 11 70° O
Di, 02.03. 13:00 4 1 7 90° O
Di, 02.03. 7:00 6 1 9 40° NO
Di, 02.03. 1:00 0 0 4 - -
Mo, 01.03. 19:00 2 1 7 130° SO
Mo, 01.03. 13:00 4 1 11 240° SW
Ortszeit Stärke Spitze Richtung
km/h Bft. km/h Grad Sektor
Mi, 03.03. 9:30 4 1 7 150° SO
Mi, 03.03. 9:20 4 1 - 150° SO
Mi, 03.03. 9:10 4 1 - 140° SO
Mi, 03.03. 9:00 4 1 7 140° SO
Mi, 03.03. 8:50 4 1 - 140° SO
Mi, 03.03. 8:40 6 1 - 140° SO
Mi, 03.03. 8:30 4 1 7 130° SO
Mi, 03.03. 8:00 4 1 7 130° SO
Mi, 03.03. 6:00 4 1 7 120° SO
Ortszeit Untergrenze Bedeckung Gattung
total tief tief mittel hoch
Mi, 03.03. 7:00 <30 m 8/8 0/8 - - -
Mi, 03.03. 1:00 <30 m 8/8 0/8 - - -
Di, 02.03. 19:00 - 0/8 0/8 - - -
Di, 02.03. 13:00 30 m 8/8 8/8 - - -
Di, 02.03. 7:00 <30 m 8/8 0/8 - - -
Di, 02.03. 1:00 <30 m 8/8 0/8 - - -
Mo, 01.03. 19:00 9000 m 3/8 0/8 - - -
Mo, 01.03. 13:00 60 m 8/8 8/8 - - -
Ortszeit Bedeckungsgrad in Achtel und Wolkenuntergrenze
Mi, 03.03. 9:30 8(<30m)
Mi, 03.03. 9:20 8(<30m)
Mi, 03.03. 9:10 8(<30m)
Mi, 03.03. 9:00 8(<30m)
Mi, 03.03. 8:50 8(<30m)
Mi, 03.03. 8:40 8(<30m)
Mi, 03.03. 8:30 8(<30m)
Mi, 03.03. 8:00 8(<30m)
Mi, 03.03. 6:00 8(<30m)
Ortszeit Luftdruck NN (hPa) Tendenz (hPa in 3 Std.)
Mi, 03.03. 7:00 1029 - 1,0
Mi, 03.03. 1:00 1032 - 1,0
Di, 02.03. 19:00 1033 - 0,9
Di, 02.03. 13:00 1035 - 0,4
Di, 02.03. 7:00 1035 - 0,1
Di, 02.03. 1:00 1035 - 0,5
Mo, 01.03. 19:00 1035 - 0,2
Mo, 01.03. 13:00 1037 + 0,3
Ortszeit Luftdruck NN (hPa) Tendenz (hPa in 3 Std.)
Mi, 03.03. 9:30 1028 - 1,0
Mi, 03.03. 9:20 1028 keine Meldung
Mi, 03.03. 9:10 1028 keine Meldung
Mi, 03.03. 9:00 1028 - 1,1
Mi, 03.03. 8:50 1028 keine Meldung
Mi, 03.03. 8:40 1028 keine Meldung
Mi, 03.03. 8:30 1028 - 0,9
Mi, 03.03. 8:00 1028 - 1,0
Mi, 03.03. 6:00 1029 - 1,7
Ortszeit Schneehöhe (cm)
Mi, 03.03. 7:00 -
Mi, 03.03. 1:00 -
Di, 02.03. 19:00 -
Di, 02.03. 13:00 -
Di, 02.03. 7:00 -
Di, 02.03. 1:00 -
Mo, 01.03. 19:00 -
Mo, 01.03. 13:00 -
Ortszeit Schneehöhe (cm)
Mi, 03.03. 9:30 -
Mi, 03.03. 9:20 -
Mi, 03.03. 9:10 -
Mi, 03.03. 9:00 -
Mi, 03.03. 8:50 -
Mi, 03.03. 8:40 -
Mi, 03.03. 8:30 -
Mi, 03.03. 8:00 -
Mi, 03.03. 6:00 -
Link zu dieser Seite / Seite empfehlen

Das Wetter in ...